ADDS METAR Data INFO
IDs: Format: Raw Decoded Include TAF

Data at: 1810 UTC 14 Aug 2018

PFKW 141756Z AUTO 23018G25KT 10SM OVC011 09/08 A2979 RMK AO2 PK WND 25028/1732 SLP088 60009 T00940078 10106 20089 51019
PFKW 141656Z AUTO 24018G26KT 10SM OVC011 09/08 A2978 RMK AO2 PK WND 23029/1628 RAE47 SLP082 P0001 T00890078
PFKW 141632Z AUTO 24017G29KT 10SM -RA OVC011 09/08 A2977 RMK AO2 PK WND 23029/1628 P0001
PFKW 141556Z AUTO 24020G25KT 4SM -RA BR OVC009 09/08 A2976 RMK AO2 PK WND 25026/1508 SLP076 P0003 T00890078
PFKW 141456Z AUTO 25018G26KT 7SM -RA OVC009 09/08 A2973 RMK AO2 PK WND 25026/1456 SLP068 P0001 60005 T00890083 51018
PFKW 141356Z AUTO 25018G26KT 9SM -RA OVC007 09/08 A2972 RMK AO2 PK WND 25026/1348 SLP065 P0001 T00940083
PFKW 141256Z AUTO 25021G26KT 5SM -RA BR OVC007 10/09 A2970 RMK AO2 PK WND 26026/1256 SLP058 P0003 T01000094
PFKW 141156Z AUTO 26014G27KT 9SM -RA OVC007 11/10 A2968 RMK AO2 PK WND 26027/1153 SLP050 P0006 60036 70110 T01060100 10128 20106 51023
PFKW 141056Z AUTO 26016G20KT 6SM -RA BR OVC007 11/11 A2966 RMK AO2 SLP043 P0008 T01110106
PFKW 140956Z AUTO 26017G23KT 6SM -RA BR OVC007 12/11 A2964 RMK AO2 SLP035 P0006 T01170111
PFKW 140856Z AUTO 26015G21KT 7SM -RA OVC007 12/12 A2961 RMK AO2 SLP027 P0006 60016 T01220117 401440117 53020
PFKW 140756Z AUTO 27014G19KT 10SM -RA OVC007 13/12 A2959 RMK AO2 CIG 005V009 SLP019 P0007 T01280122
PFKW 140656Z AUTO 25010KT 9SM -RA BKN007 OVC014 12/12 A2957 RMK AO2 SLP012 P0003 T01220122
PFKW 140556Z AUTO 26009KT 10SM -RA BKN007 BKN013 OVC085 13/12 A2955 RMK AO2 CIG 004V009 SLP007 P0018 60036 T01280122 10139 20122 53021
PFKW 140506Z AUTO 25012KT 5SM RA BR OVC005 13/12 A2953 RMK AO2 P0005
PFKW 140456Z AUTO 25013G18KT 6SM RA BR OVC007 13/12 A2953 RMK AO2 SLP999 P0007 T01280122
PFKW 140356Z AUTO 25016G24KT 10SM -RA OVC007 12/12 A2951 RMK AO2 SLP992 P0003 T01220117
PFKW 140256Z AUTO 24018G22KT 3SM -RA BR OVC007 12/12 A2949 RMK AO2 SLP986 P0002 60008 T01220122 51010
PFKW 140156Z AUTO 24017G22KT 10SM -RA OVC007 13/12 A2948 RMK AO2 SLP982 P0004 T01280122
PFKW 140056Z AUTO 26011G19KT 6SM RA BR BKN009 BKN020 OVC046 14/13 A2946 RMK AO2 CIG 006V014 SLP976 P0002 T01390128
PFKW 140038Z AUTO 25010KT 10SM -RA BKN009 BKN042 OVC050 14/13 A2946 RMK AO2 CIG 007V014 P0000
PFKW 140023Z AUTO 26010KT 10SM -RA BKN011 BKN038 OVC044 14/13 A2945 RMK AO2 CIG 007V016 P0000
PFKW 132356Z AUTO 26010KT 4SM -RA BR SCT009 BKN014 OVC033 14/13 A2944 RMK AO2 SLP969 P0003 60019 T01390128 10144 20117 53026
PFKW 132345Z AUTO 28007KT 10SM -RA FEW008 BKN014 OVC044 14/13 A2944 RMK AO2 P0001
PFKW 132338Z AUTO 28007KT 10SM -RA SCT010 BKN019 OVC043 14/13 A2943 RMK AO2 CIG 015V029 P0001
PFKW 132330Z AUTO 28007KT 10SM -RA SCT010 BKN038 OVC070 14/13 A2943 RMK AO2 P0001
PFKW 132312Z AUTO 29007KT 10SM -RA SCT009 BKN016 OVC070 14/13 A2942 RMK AO2 P0001
PFKW 132303Z AUTO 30007KT 10SM -RA BKN011 BKN085 14/13 A2942 RMK AO2 CIG 006V019 P0000
PFKW 132256Z AUTO 29007KT 10SM -RA BKN007 BKN013 OVC035 14/13 A2942 RMK AO2 CIG 006V011 SLP961 P0002 T01390128
PFKW 132253Z AUTO 30006KT 10SM -RA BKN007 BKN013 OVC018 14/13 A2941 RMK AO2 CIG 006V011 P0002
PFKW 132249Z AUTO 31007KT 10SM -RA SCT007 BKN015 OVC030 14/13 A2941 RMK AO2 P0002
PFKW 132209Z AUTO 26003KT 8SM -RA OVC007 13/13 A2939 RMK AO2 CIG 004V012 P0001
PFKW 132156Z AUTO 26004KT 3SM -RA BR BKN005 OVC010 13/13 A2939 RMK AO2 SLP950 P0007 T01330133
PFKW 132147Z AUTO 25005KT 3SM -RA BR BKN005 OVC010 13/13 A2938 RMK AO2 P0005
PFKW 132114Z AUTO 23006KT 4SM -RA BR BKN005 BKN013 OVC023 13/12 A2937 RMK AO2 CIG 004V008 P0002
PFKW 132103Z AUTO 22007KT 3SM -RA BR SCT005 BKN013 OVC028 13/12 A2937 RMK AO2 P0001
PFKW 132051Z AUTO 22008KT 1 1/2SM -RA BR BKN005 OVC009 13/12 A2936 RMK AO2 CIG 003V008 P0002
PFKW 132044Z AUTO 22008KT 2SM -RA BR BKN005 OVC009 13/13 A2936 RMK AO2 CIG 003V008 P0002
PFKW 132037Z AUTO 22008KT 2 1/2SM -RA BR BKN004 OVC009 12/12 A2936 RMK AO2 CIG 003V008 P0002
PFKW 131956Z AUTO 21009KT 2SM -RA BR OVC006 12/12 A2934 RMK AO2 CIG 004V010 SLP936 P0002 T01220122
PFKW 131952Z AUTO 22010KT 2SM -RA BR OVC006 12/12 A2934 RMK AO2 CIG 004V008 P0002
PFKW 131936Z AUTO 22010KT 1 3/4SM -RA BR OVC006 12/12 A2933 RMK AO2 CIG 004V008 P0001
PFKW 131924Z AUTO 23009KT 2SM -RA BR OVC006 12/12 A2933 RMK AO2 CIG 004V010 P0001
PFKW 131856Z AUTO 23010KT 4SM -RA BR BKN006 OVC012 12/12 A2932 RMK AO2 CIG 004V009 SLP928 P0003 T01170117
PFKW 131756Z AUTO 23011KT 10SM -RA OVC006 12/12 A2930 RMK AO2 SLP920 P0003 60019 T01220117 10122 20117 53014
PFKW 131718Z AUTO 23012KT 6SM -RA BR OVC006 12/12 A2929 RMK AO2 P0001
PFKW 131656Z AUTO 23012KT 4SM -RA BR OVC004 12/12 A2928 RMK AO2 CIG 004V009 SLP915 P0003 T01170117
PFKW 131610Z AUTO 22011KT 3SM -RA BR OVC004 12/12 A2927 RMK AO2 P0001
PFKW 131556Z AUTO 21011KT 2 1/2SM -RA BR OVC004 12/12 A2927 RMK AO2 CIG 003V008 SLP910 P0004 T01170117
PFKW 131539Z AUTO 21012KT 2SM -RA BR OVC004 12/12 A2926 RMK AO2 VIS 1 1/2V2 1/2 P0004
PFKW 131456Z AUTO 21011KT 10SM -RA OVC004 12/12 A2926 RMK AO2 SLP907 P0004 60009 T01220117 53002
PFKW 131436Z AUTO 22010KT 7SM -RA OVC004 12/12 A2925 RMK AO2 CIG 004V009 P0003
PFKW 131356Z AUTO 18005KT 6SM -RA BR BKN008 OVC015 12/12 A2925 RMK AO2 CIG 004V011 SLP905 P0005 T01170117
PFKW 131342Z AUTO 18006KT 10SM -RA FEW008 BKN015 OVC024 12/11 A2925 RMK AO2 P0002
PFKW 131313Z AUTO 19008KT 10SM -RA BKN006 BKN018 OVC075 12/12 A2925 RMK AO2 CIG 004V009 P0001
PFKW 131256Z AUTO 20008KT 10SM -RA SCT006 BKN016 OVC026 12/12 A2925 RMK AO2 RAE26B56 SLP905 P0000 T01220117
PFKW 131253Z AUTO 20008KT 10SM FEW006 BKN016 OVC026 12/12 A2925 RMK AO2 RAE26 P0000
PFKW 131242Z AUTO 20009KT 10SM SCT006 BKN014 OVC026 12/12 A2925 RMK AO2 RAE26 P0000
PFKW 131219Z AUTO 21009KT 10SM -RA BKN006 BKN010 OVC015 12/12 A2924 RMK AO2 CIG 004V009 P0000
PFKW 131156Z AUTO 21008KT 10SM -RA FEW006 BKN010 OVC029 12/11 A2924 RMK AO2 RAE09B55 SLP902 P0000 60002 70042 T01170111 10128 20117 51018
PFKW 131056Z AUTO 22010KT 10SM -RA FEW006 BKN025 OVC090 12/12 A2923 RMK AO2 SLP898 P0000 T01220117
PFKW 131034Z AUTO 22011KT 10SM -RA FEW006 BKN015 OVC050 12/12 A2923 RMK AO2 P0000
PFKW 131014Z AUTO 23010KT 10SM -RA SCT005 BKN015 OVC049 12/12 A2922 RMK AO2 CIG 011V024 P0000
PFKW 131001Z AUTO 23009KT 10SM -RA BKN005 BKN014 OVC060 12/12 A2922 RMK AO2 P0000
PFKW 130956Z AUTO 23008KT 10SM -RA SCT005 BKN018 OVC055 12/12 A2921 RMK AO2 RAB23 CIG 010V024 SLP892 P0001 T01220117
PFKW 130946Z AUTO 23009KT 10SM -RA SCT005 BKN034 OVC060 12/12 A2921 RMK AO2 RAB23 P0000
PFKW 130908Z AUTO 22010KT 10SM SCT008 BKN013 OVC050 12/11 A2919 RMK AO2
PFKW 130856Z AUTO 21008KT 10SM FEW008 BKN040 OVC050 12/12 A2919 RMK AO2 SLP883 60001 T01220117 401610117 51020
PFKW 130837Z AUTO 22011KT 10SM FEW008 BKN036 OVC043 12/11 A2918 RMK AO2
PFKW 130756Z AUTO 21012KT 10SM BKN018 OVC070 12/12 A2916 RMK AO2 RAE13 SLP875 P0000 T01220117
PFKW 130752Z AUTO 21012KT 10SM FEW011 BKN018 OVC070 12/12 A2916 RMK AO2 RAE13 P0000
PFKW 130718Z AUTO 21012KT 10SM SCT010 BKN039 OVC049 12/12 A2914 RMK AO2 RAE13 P0000
PFKW 130710Z AUTO 21013G18KT 9SM -RA SCT008 BKN012 OVC043 12/12 A2914 RMK AO2 P0000
PFKW 130656Z AUTO 21014G21KT 9SM -RA FEW008 OVC015 12/12 A2913 RMK AO2 RAB49 SLP863 P0001 T01220117
PFKW 130640Z AUTO 21014KT 10SM SCT006 BKN015 OVC021 12/12 A2912 RMK AO2